Hik — 9HQT7 — position and weather

sailwx.info

Track history (hours):
 
Tides and Currents Weather Stations Pressure Air Temp Water Temp Dewpoint Dewpoint Depression Visibility Wind Speed Wind Dir Waves Ship Positions

Hik

Last reported at 2017-Nov-24 13:43 UTC. Time now 2017-Nov-24 14:50 UTC.
Position N 45°06' E 036°35'.

Length 176 m; draft 7.7 m.

Type: Tanker. MMSI: 229499000.

Date/timePositionNaut miles runAvg speedWind from/ knotsBaromVisibWave heightAir tempDewpointWater temp
2017-Nov-24 13:43N 45°06' E 036°35'0 0.0
2017-Nov-24 12:55N 45°06' E 036°35'0 0.0
2017-Nov-24 12:28N 45°06' E 036°35'0 0.0
2017-Nov-23 05:42N 45°06' E 036°35'  
2017-Nov-19 23:53N 45°06' E 036°34'0 0.0
2017-Nov-19 23:28N 45°06' E 036°34'0 0.1
2017-Nov-19 22:58N 45°06' E 036°34'0 0.0
2017-Nov-19 21:43N 45°06' E 036°34'0 0.0
2017-Nov-19 21:12N 45°06' E 036°34'0 0.1
2017-Nov-19 20:57N 45°06' E 036°34'0 0.1
2017-Nov-19 20:30N 45°06' E 036°34'0 0.1
2017-Nov-19 19:54N 45°06' E 036°34'0 0.0
2017-Nov-19 18:38N 45°06' E 036°34'0 0.2
2017-Nov-19 18:29N 45°06' E 036°34'0 0.0
2017-Nov-19 17:59N 45°06' E 036°34'0 0.0
2017-Nov-19 17:20N 45°06' E 036°34'0 0.0
2017-Nov-19 16:53N 45°06' E 036°34'0 0.0
2017-Nov-19 16:01N 45°06' E 036°34'0 0.1
2017-Nov-19 15:37N 45°06' E 036°34'0 0.1
2017-Nov-19 15:25N 45°06' E 036°34'0 0.1
2017-Nov-19 14:58N 45°06' E 036°34'0 0.0
2017-Nov-19 14:28N 45°06' E 036°34'0 0.0
2017-Nov-19 13:06N 45°06' E 036°34'0 0.1
2017-Nov-19 12:57N 45°06' E 036°34'0 0.0
2017-Nov-19 12:24N 45°06' E 036°34'0 0.0
2017-Nov-19 11:59N 45°06' E 036°34'0 0.0
2017-Nov-19 11:23N 45°06' E 036°34'0 0.0
2017-Nov-19 10:53N 45°06' E 036°34'0 0.0
2017-Nov-19 10:29N 45°06' E 036°34'0 0.0
2017-Nov-19 09:22N 45°06' E 036°34'0 0.1
2017-Nov-19 08:58N 45°06' E 036°34'0 0.2
2017-Nov-19 08:30N 45°06' E 036°34'0 0.5
2017-Nov-19 08:00N 45°06' E 036°34'3 6.1
2017-Nov-19 07:30N 45°04' E 036°31'41010.8
2017-Nov-17 17:26N 41°00' E 028°60'5 8.1
2017-Nov-17 16:46N 40°55' E 028°56'6 0.3
2017-Nov-16 16:17N 40°53' E 028°49'149 3.9
2017-Nov-15 02:13N 39°48' E 025°52'311.7
2017-Nov-15 01:55N 39°45' E 025°51'  
Track history (hours):
 
Tides and Currents Weather Stations Pressure Air Temp Water Temp Dewpoint Dewpoint Depression Visibility Wind Speed Wind Dir Waves Ship Positions

Hik

Last reported at 2017-Nov-24 13:43 UTC. Time now 2017-Nov-24 14:50 UTC.
Position N 45°06' E 036°35'.

Length 176 m; draft 7.7 m.

Type: Tanker. MMSI: 229499000.

Date/timePositionNaut miles runAvg speedWind from/ knotsBaromVisibWave heightAir tempDewpointWater temp
2017-Nov-24 13:43N 45°06' E 036°35'0 0.0
2017-Nov-24 12:55N 45°06' E 036°35'0 0.0
2017-Nov-24 12:28N 45°06' E 036°35'0 0.0
2017-Nov-23 05:42N 45°06' E 036°35'  
2017-Nov-19 23:53N 45°06' E 036°34'0 0.0
2017-Nov-19 23:28N 45°06' E 036°34'0 0.1
2017-Nov-19 22:58N 45°06' E 036°34'0 0.0
2017-Nov-19 21:43N 45°06' E 036°34'0 0.0
2017-Nov-19 21:12N 45°06' E 036°34'0 0.1
2017-Nov-19 20:57N 45°06' E 036°34'0 0.1
2017-Nov-19 20:30N 45°06' E 036°34'0 0.1
2017-Nov-19 19:54N 45°06' E 036°34'0 0.0
2017-Nov-19 18:38N 45°06' E 036°34'0 0.2
2017-Nov-19 18:29N 45°06' E 036°34'0 0.0
2017-Nov-19 17:59N 45°06' E 036°34'0 0.0
2017-Nov-19 17:20N 45°06' E 036°34'0 0.0
2017-Nov-19 16:53N 45°06' E 036°34'0 0.0
2017-Nov-19 16:01N 45°06' E 036°34'0 0.1
2017-Nov-19 15:37N 45°06' E 036°34'0 0.1
2017-Nov-19 15:25N 45°06' E 036°34'0 0.1
2017-Nov-19 14:58N 45°06' E 036°34'0 0.0
2017-Nov-19 14:28N 45°06' E 036°34'0 0.0
2017-Nov-19 13:06N 45°06' E 036°34'0 0.1
2017-Nov-19 12:57N 45°06' E 036°34'0 0.0
2017-Nov-19 12:24N 45°06' E 036°34'0 0.0
2017-Nov-19 11:59N 45°06' E 036°34'0 0.0
2017-Nov-19 11:23N 45°06' E 036°34'0 0.0
2017-Nov-19 10:53N 45°06' E 036°34'0 0.0
2017-Nov-19 10:29N 45°06' E 036°34'0 0.0
2017-Nov-19 09:22N 45°06' E 036°34'0 0.1
2017-Nov-19 08:58N 45°06' E 036°34'0 0.2
2017-Nov-19 08:30N 45°06' E 036°34'0 0.5
2017-Nov-19 08:00N 45°06' E 036°34'3 6.1
2017-Nov-19 07:30N 45°04' E 036°31'41010.8
2017-Nov-17 17:26N 41°00' E 028°60'5 8.1
2017-Nov-17 16:46N 40°55' E 028°56'6 0.3
2017-Nov-16 16:17N 40°53' E 028°49'149 3.9
2017-Nov-15 02:13N 39°48' E 025°52'311.7
2017-Nov-15 01:55N 39°45' E 025°51'  

Dump ship's entire track history